createdAt,value
2019-02-15T00:01:35.885Z,97638.95
2019-02-15T00:04:25.655Z,97639.54
2019-02-15T00:07:15.399Z,97632.45
2019-02-15T00:10:05.279Z,97614.81
2019-02-15T00:12:54.962Z,97631.77
2019-02-15T00:15:37.395Z,97627.54
2019-02-15T00:18:46.209Z,97630.96
2019-02-15T00:21:54.867Z,97633.84
2019-02-15T00:24:44.654Z,97629.62
2019-02-15T00:27:27.357Z,97624.28
2019-02-15T00:30:17.168Z,97622.02
2019-02-15T00:33:07.096Z,97624.08
2019-02-15T00:35:49.959Z,97620.90
2019-02-15T00:41:27.987Z,97616.91
2019-02-15T00:44:17.791Z,97621.56
2019-02-15T00:51:01.339Z,97625.31
2019-02-15T00:54:02.277Z,97629.84
2019-02-15T00:57:10.915Z,97607.90
2019-02-15T01:00:11.903Z,97630.14
2019-02-15T01:03:20.433Z,97634.48
2019-02-15T01:06:21.503Z,97632.06
2019-02-15T01:09:22.786Z,97626.39
2019-02-15T01:15:07.871Z,97629.02
2019-02-15T01:18:16.776Z,97632.58
2019-02-15T01:20:59.088Z,97625.06
2019-02-15T01:23:48.806Z,97622.61
2019-02-15T01:26:50.356Z,97620.16
2019-02-15T01:29:58.881Z,97614.75
2019-02-15T01:36:20.482Z,97605.86
2019-02-15T01:39:09.874Z,97602.95
2019-02-15T01:42:18.436Z,97599.45
2019-02-15T01:45:13.898Z,97595.97
2019-02-15T01:48:03.595Z,97585.27
2019-02-15T01:50:45.979Z,97585.54
2019-02-15T01:53:35.703Z,97592.55
2019-02-15T01:56:18.375Z,97592.02
2019-02-15T01:59:08.076Z,97588.60
2019-02-15T02:01:50.201Z,97583.00
2019-02-15T02:04:40.020Z,97576.52
2019-02-15T02:07:23.273Z,97576.59
2019-02-15T02:13:14.338Z,97574.69
2019-02-15T02:16:04.177Z,97575.92
2019-02-15T02:18:46.314Z,97578.95
2019-02-15T02:21:36.099Z,97572.12
2019-02-15T02:24:18.918Z,97569.04
2019-02-15T02:27:08.662Z,97575.83
2019-02-15T02:29:51.314Z,97583.06
2019-02-15T02:32:41.095Z,97581.62
2019-02-15T02:35:30.835Z,97582.85
2019-02-15T02:38:12.818Z,97582.05
2019-02-15T02:41:02.606Z,97582.78
2019-02-15T02:43:59.357Z,97580.83
2019-02-15T02:46:36.345Z,97573.66
2019-02-15T02:52:14.548Z,97577.87
2019-02-15T02:54:45.233Z,97569.70
2019-02-15T02:57:34.966Z,97573.06
2019-02-15T03:00:17.805Z,97570.63
2019-02-15T03:03:07.700Z,97572.57
2019-02-15T03:05:57.458Z,97579.76
2019-02-15T03:08:47.229Z,97580.19
2019-02-15T03:11:36.997Z,97575.89
2019-02-15T03:14:19.169Z,97578.31
2019-02-15T03:17:08.886Z,97573.52
2019-02-15T03:19:58.628Z,97571.70
2019-02-15T03:22:48.433Z,97574.09
2019-02-15T03:25:30.603Z,97547.56
2019-02-15T03:28:20.313Z,97564.75
2019-02-15T03:31:02.693Z,97567.13
2019-02-15T03:33:52.455Z,97550.98
2019-02-15T03:36:53.717Z,97564.87
2019-02-15T03:40:21.371Z,97563.36
2019-02-15T03:43:04.383Z,97564.43
2019-02-15T03:45:54.209Z,97563.56
2019-02-15T03:48:36.337Z,97555.65
2019-02-15T03:51:26.101Z,97553.23
2019-02-15T03:54:08.720Z,97544.14
2019-02-15T03:56:58.487Z,97552.09
2019-02-15T03:59:41.338Z,97556.52
2019-02-15T04:02:31.044Z,97556.75
2019-02-15T04:05:13.316Z,97551.92
2019-02-15T04:08:03.042Z,97542.77
2019-02-15T04:10:45.655Z,97536.84
2019-02-15T04:13:35.467Z,97565.37
2019-02-15T04:16:25.241Z,97571.61
2019-02-15T04:19:15.027Z,97569.66
2019-02-15T04:22:04.879Z,97569.97
2019-02-15T04:24:54.716Z,97565.10
2019-02-15T04:27:44.453Z,97575.56
2019-02-15T04:30:34.235Z,97573.22
2019-02-15T04:33:24.045Z,97572.80
2019-02-15T04:36:13.848Z,97575.58
2019-02-15T04:42:00.857Z,97552.38
2019-02-15T04:44:50.689Z,97574.33
2019-02-15T04:47:32.873Z,97572.42
2019-02-15T04:50:22.681Z,97570.28
2019-02-15T04:53:04.977Z,97551.66
2019-02-15T04:55:54.718Z,97574.72
2019-02-15T04:58:36.970Z,97569.72
2019-02-15T05:04:17.480Z,97564.74
2019-02-15T05:06:48.109Z,97562.50
2019-02-15T05:09:37.950Z,97564.56
2019-02-15T05:12:27.660Z,97570.54
2019-02-15T05:15:11.175Z,97565.58
2019-02-15T05:18:00.913Z,97569.98
2019-02-15T05:20:43.060Z,97576.68
2019-02-15T05:23:32.851Z,97575.34
2019-02-15T05:26:14.846Z,97576.60
2019-02-15T05:29:04.579Z,97576.33
2019-02-15T05:31:46.936Z,97577.91
2019-02-15T05:34:36.646Z,97567.56
2019-02-15T05:37:18.691Z,97566.76
2019-02-15T05:43:09.818Z,97580.75
2019-02-15T05:48:56.400Z,97563.47
2019-02-15T05:51:47.506Z,97578.69
2019-02-15T05:54:30.003Z,97575.55
2019-02-15T05:57:19.738Z,97560.23
2019-02-15T06:00:01.730Z,97571.22
2019-02-15T06:02:51.476Z,97566.69
2019-02-15T06:05:34.040Z,97571.51
2019-02-15T06:08:16.165Z,97574.67
2019-02-15T06:11:07.843Z,97579.57
2019-02-15T06:13:57.354Z,97582.36
2019-02-15T06:16:39.938Z,97585.58
2019-02-15T06:19:22.104Z,97562.26
2019-02-15T06:22:11.812Z,97590.74
2019-02-15T06:24:54.948Z,97589.11
2019-02-15T06:27:44.750Z,97593.16
2019-02-15T06:30:34.575Z,97596.56
2019-02-15T06:33:24.382Z,97573.84
2019-02-15T06:36:14.168Z,97588.73
2019-02-15T06:39:16.152Z,97588.60
2019-02-15T06:41:58.544Z,97589.41
2019-02-15T06:44:48.684Z,97591.04
2019-02-15T06:47:38.497Z,97599.16
2019-02-15T06:50:28.206Z,97600.34
2019-02-15T06:53:17.941Z,97610.50
2019-02-15T06:56:07.691Z,97592.21
2019-02-15T06:59:16.206Z,97626.84
2019-02-15T07:02:03.722Z,97623.16
2019-02-15T07:05:12.337Z,97618.88
2019-02-15T07:08:14.870Z,97617.17
2019-02-15T07:10:57.147Z,97643.02
2019-02-15T07:13:46.864Z,97628.26
2019-02-15T07:16:29.122Z,97625.33
2019-02-15T07:19:18.880Z,97662.17
2019-02-15T07:22:01.620Z,97648.34
2019-02-15T07:24:51.379Z,97655.20
2019-02-15T07:27:33.656Z,97663.98
2019-02-15T07:30:16.555Z,97654.44
2019-02-15T07:33:06.342Z,97657.78
2019-02-15T07:35:56.070Z,97650.49
2019-02-15T07:38:45.915Z,97650.03
2019-02-15T07:41:35.759Z,97648.52
2019-02-15T07:44:18.166Z,97643.63
2019-02-15T07:47:07.951Z,97651.88
2019-02-15T07:49:50.588Z,97648.38
2019-02-15T07:52:40.336Z,97648.40
2019-02-15T07:55:22.929Z,97644.16
2019-02-15T07:58:12.674Z,97638.27
2019-02-15T08:00:55.960Z,97622.50
2019-02-15T08:03:45.845Z,97645.95
2019-02-15T08:06:28.363Z,97624.65
2019-02-15T08:09:18.211Z,97644.91
2019-02-15T08:12:08.160Z,97638.86
2019-02-15T08:14:57.952Z,97642.98
2019-02-15T08:17:47.833Z,97645.24
2019-02-15T08:20:37.622Z,97639.01
2019-02-15T08:26:42.081Z,97639.38
2019-02-15T08:29:31.870Z,97625.27
2019-02-15T08:32:21.636Z,97642.73
2019-02-15T08:35:11.516Z,97621.00
2019-02-15T08:38:01.337Z,97644.27
2019-02-15T08:40:51.269Z,97628.92
2019-02-15T08:43:41.099Z,97629.16
2019-02-15T08:46:30.899Z,97635.52
2019-02-15T08:49:13.113Z,97639.07
2019-02-15T08:52:02.895Z,97630.26
2019-02-15T08:54:52.741Z,97625.43
2019-02-15T08:57:42.523Z,97631.60
2019-02-15T09:00:51.455Z,97626.70
2019-02-15T09:03:34.385Z,97631.61
2019-02-15T09:06:24.203Z,97629.81
2019-02-15T09:09:14.030Z,97631.55
2019-02-15T09:12:03.780Z,97637.89
2019-02-15T09:14:53.602Z,97636.70
2019-02-15T09:17:43.401Z,97635.09
2019-02-15T09:20:33.581Z,97634.02
2019-02-15T09:23:23.387Z,97635.27
2019-02-15T09:29:07.381Z,97635.73
2019-02-15T09:31:57.155Z,97635.05
2019-02-15T09:34:39.156Z,97632.48
2019-02-15T09:37:29.123Z,97630.23
2019-02-15T09:40:19.010Z,97632.88
2019-02-15T09:43:08.757Z,97610.08
2019-02-15T09:45:58.677Z,97637.45
2019-02-15T09:48:48.485Z,97636.39
2019-02-15T09:51:38.323Z,97634.06
2019-02-15T09:54:28.145Z,97638.58
2019-02-15T09:57:17.916Z,97632.05
2019-02-15T10:00:08.129Z,97640.19
2019-02-15T10:02:57.911Z,97635.98
2019-02-15T10:05:47.730Z,97636.61
2019-02-15T10:08:37.538Z,97632.67
2019-02-15T10:11:27.354Z,97634.64
2019-02-15T10:14:17.129Z,97632.70
2019-02-15T10:17:06.869Z,97625.45
2019-02-15T10:19:56.660Z,97626.42
2019-02-15T10:22:59.806Z,97620.73
2019-02-15T10:25:41.772Z,97621.59
2019-02-15T10:28:31.487Z,97608.61
2019-02-15T10:31:14.364Z,97616.05
2019-02-15T10:34:04.100Z,97623.31
2019-02-15T10:36:46.582Z,97617.93
2019-02-15T10:39:36.322Z,97596.30
2019-02-15T10:42:18.836Z,97618.91
2019-02-15T10:45:09.560Z,97614.84
2019-02-15T10:47:56.122Z,97607.95
2019-02-15T10:50:45.894Z,97613.13
2019-02-15T10:53:28.176Z,97606.63
2019-02-15T10:55:58.872Z,97604.23
2019-02-15T10:58:48.658Z,97602.83
2019-02-15T11:01:38.716Z,97589.93
2019-02-15T11:04:28.551Z,97587.25
2019-02-15T11:07:18.295Z,97591.85
2019-02-15T11:10:01.305Z,97585.44
2019-02-15T11:12:51.018Z,97583.28
2019-02-15T11:15:37.349Z,97560.98
2019-02-15T11:18:27.095Z,97580.16
2019-02-15T11:21:09.108Z,97570.80
2019-02-15T11:23:59.217Z,97571.83
2019-02-15T11:26:41.368Z,97562.05
2019-02-15T11:29:31.489Z,97533.09
2019-02-15T11:35:11.678Z,97555.77
2019-02-15T11:38:01.421Z,97555.54
2019-02-15T11:40:51.199Z,97550.52
2019-02-15T11:43:41.101Z,97540.62
2019-02-15T11:46:30.889Z,97539.59
2019-02-15T11:49:20.693Z,97540.23
2019-02-15T11:52:10.765Z,97528.02
2019-02-15T11:55:00.569Z,97536.45
2019-02-15T11:57:50.356Z,97528.41
2019-02-15T12:00:40.159Z,97501.32
2019-02-15T12:03:22.183Z,97492.31
2019-02-15T12:06:12.125Z,97506.30
2019-02-15T12:09:01.914Z,97483.98
2019-02-15T12:11:51.756Z,97498.85
2019-02-15T12:14:41.555Z,97469.66
2019-02-15T12:17:31.345Z,97499.80
2019-02-15T12:20:21.209Z,97492.56
2019-02-15T12:23:11.030Z,97489.27
2019-02-15T12:26:00.832Z,97491.00
2019-02-15T12:28:50.657Z,97483.44
2019-02-15T12:31:40.443Z,97480.64
2019-02-15T12:34:30.282Z,97457.65
2019-02-15T12:37:20.081Z,97445.66
2019-02-15T12:40:10.025Z,97474.19
2019-02-15T12:42:59.950Z,97473.16
2019-02-15T12:45:49.770Z,97459.92
2019-02-15T12:48:39.521Z,97461.84
2019-02-15T12:51:29.343Z,97452.77
2019-02-15T12:54:19.133Z,97454.84
2019-02-15T12:57:21.833Z,97441.80
2019-02-15T13:00:05.363Z,97441.78
2019-02-15T13:02:55.091Z,97437.88
2019-02-15T13:05:39.191Z,97437.89
2019-02-15T13:08:28.900Z,97433.18
2019-02-15T13:11:11.078Z,97425.07
2019-02-15T13:17:02.262Z,97425.30
2019-02-15T13:19:52.000Z,97420.09
2019-02-15T13:22:34.504Z,97418.87
2019-02-15T13:25:24.376Z,97416.27
2019-02-15T13:28:06.628Z,97409.39
2019-02-15T13:30:48.710Z,97409.23
2019-02-15T13:33:38.417Z,97405.42
2019-02-15T13:36:20.462Z,97404.47
2019-02-15T13:39:22.506Z,97397.79
2019-02-15T13:42:04.768Z,97372.81
2019-02-15T13:44:54.473Z,97381.59
2019-02-15T13:47:38.447Z,97385.97
2019-02-15T13:50:28.137Z,97387.13
2019-02-15T13:53:10.490Z,97364.85
2019-02-15T13:56:00.246Z,97382.34
2019-02-15T13:58:43.317Z,97379.48
2019-02-15T14:01:33.052Z,97378.17
2019-02-15T14:04:15.460Z,97366.25
2019-02-15T14:10:27.469Z,97376.08
2019-02-15T14:13:17.178Z,97378.19
2019-02-15T14:16:26.007Z,97372.83
2019-02-15T14:19:34.804Z,97368.14
2019-02-15T14:22:17.685Z,97358.59
2019-02-15T14:25:08.156Z,97366.12
2019-02-15T14:27:50.510Z,97354.38
2019-02-15T14:30:40.392Z,97361.61
2019-02-15T14:33:30.200Z,97357.23
2019-02-15T14:36:20.066Z,97340.03
2019-02-15T14:39:12.228Z,97355.22
2019-02-15T14:42:02.418Z,97342.76
2019-02-15T14:44:52.236Z,97348.27
2019-02-15T14:47:35.020Z,97342.81
2019-02-15T14:53:28.390Z,97342.48
2019-02-15T14:56:10.756Z,97334.87
2019-02-15T14:59:00.687Z,97332.38
2019-02-15T15:01:50.473Z,97314.81
2019-02-15T15:04:41.478Z,97330.12
2019-02-15T15:07:25.957Z,97324.25
2019-02-15T15:10:15.742Z,97320.16
2019-02-15T15:13:05.592Z,97324.95
2019-02-15T15:15:55.403Z,97318.23
2019-02-15T15:19:04.315Z,97315.42
2019-02-15T15:21:47.445Z,97313.55
2019-02-15T15:24:37.280Z,97313.97
2019-02-15T15:27:27.083Z,97314.48
2019-02-15T15:30:24.346Z,97290.95
2019-02-15T15:36:18.398Z,97306.45
2019-02-15T15:39:01.735Z,97305.56
2019-02-15T15:41:51.513Z,97302.18
2019-02-15T15:44:34.067Z,97276.68
2019-02-15T15:47:23.823Z,97301.84
2019-02-15T15:50:13.921Z,97302.41
2019-02-15T15:53:03.777Z,97305.22
2019-02-15T15:58:46.773Z,97275.23
2019-02-15T16:01:37.049Z,97298.75
2019-02-15T16:04:26.803Z,97307.92
2019-02-15T16:07:16.603Z,97302.61
2019-02-15T16:10:07.569Z,97306.02
2019-02-15T16:12:57.307Z,97294.83
2019-02-15T16:15:47.235Z,97299.80
2019-02-15T16:18:36.967Z,97297.11
2019-02-15T16:21:19.579Z,97298.84
2019-02-15T16:24:12.684Z,97292.77
2019-02-15T16:26:53.613Z,97270.73
2019-02-15T16:29:55.833Z,97294.85
2019-02-15T16:32:37.990Z,97273.70
2019-02-15T16:35:27.681Z,97295.27
2019-02-15T16:38:09.837Z,97291.39
2019-02-15T16:40:59.551Z,97293.42
2019-02-15T16:43:42.237Z,97290.96
2019-02-15T16:46:24.355Z,97292.58
2019-02-15T16:49:14.098Z,97295.70
2019-02-15T16:51:56.452Z,97299.91
2019-02-15T16:54:46.186Z,97296.42
2019-02-15T16:57:29.092Z,97298.50
2019-02-15T17:00:19.125Z,97303.50
2019-02-15T17:03:09.392Z,97303.63
2019-02-15T17:06:11.739Z,97290.52
2019-02-15T17:08:53.827Z,97309.27
2019-02-15T17:11:43.586Z,97313.03
2019-02-15T17:14:33.304Z,97312.36
2019-02-15T17:17:15.841Z,97309.29
2019-02-15T17:20:05.957Z,97306.60
2019-02-15T17:22:55.884Z,97303.33
2019-02-15T17:28:39.576Z,97281.52
2019-02-15T17:31:21.665Z,97292.27
2019-02-15T17:34:11.421Z,97312.73
2019-02-15T17:37:01.190Z,97305.38
2019-02-15T17:39:50.965Z,97313.95
2019-02-15T17:42:53.442Z,97312.22
2019-02-15T17:45:36.285Z,97318.07
2019-02-15T17:48:25.981Z,97318.59
2019-02-15T17:51:08.642Z,97319.17
2019-02-15T17:53:58.353Z,97319.12
2019-02-15T17:56:40.516Z,97321.77
2019-02-15T17:59:30.228Z,97315.72
2019-02-15T18:02:12.675Z,97316.64
2019-02-15T18:05:02.366Z,97313.44
2019-02-15T18:07:45.839Z,97321.16
2019-02-15T18:10:35.588Z,97313.05
2019-02-15T18:13:18.083Z,97316.36
2019-02-15T18:16:07.800Z,97316.46
2019-02-15T18:18:50.067Z,97311.45
2019-02-15T18:21:39.787Z,97316.30
2019-02-15T18:24:22.180Z,97309.16
2019-02-15T18:27:11.980Z,97305.13
2019-02-15T18:30:01.735Z,97286.48
2019-02-15T18:32:51.520Z,97306.05
2019-02-15T18:35:41.489Z,97284.73
2019-02-15T18:38:31.257Z,97278.96
2019-02-15T18:41:21.018Z,97301.42
2019-02-15T18:44:23.131Z,97300.65
2019-02-15T18:47:05.584Z,97304.89
2019-02-15T18:49:55.317Z,97298.53
2019-02-15T18:52:45.092Z,97300.77
2019-02-15T18:55:27.148Z,97299.47
2019-02-15T18:58:17.075Z,97291.27
2019-02-15T19:01:06.847Z,97297.06
2019-02-15T19:03:56.642Z,97281.69
2019-02-15T19:06:58.803Z,97274.93
2019-02-15T19:09:41.247Z,97271.38
2019-02-15T19:12:30.997Z,97294.16
2019-02-15T19:15:13.623Z,97280.20
2019-02-15T19:18:03.328Z,97295.06
2019-02-15T19:20:45.386Z,97296.78
2019-02-15T19:23:35.133Z,97269.97
2019-02-15T19:26:17.195Z,97293.46
2019-02-15T19:29:06.936Z,97289.23
2019-02-15T19:31:49.429Z,97287.34
2019-02-15T19:37:40.675Z,97279.80
2019-02-15T19:40:30.433Z,97287.60
2019-02-15T19:43:12.956Z,97294.11
2019-02-15T19:45:55.552Z,97292.93
2019-02-15T19:48:45.375Z,97288.50
2019-02-15T19:51:35.968Z,97289.13
2019-02-15T19:54:20.647Z,97288.92
2019-02-15T19:57:29.515Z,97288.34
2019-02-15T20:00:19.365Z,97288.33
2019-02-15T20:03:09.190Z,97287.78
2019-02-15T20:05:58.961Z,97268.26
2019-02-15T20:08:48.707Z,97253.37
2019-02-15T20:14:30.817Z,97283.66
2019-02-15T20:17:20.500Z,97284.87
2019-02-15T20:20:02.543Z,97273.83
2019-02-15T20:22:52.296Z,97273.73
2019-02-15T20:25:34.359Z,97281.69
2019-02-15T20:28:24.074Z,97280.02
2019-02-15T20:31:07.063Z,97277.89
2019-02-15T20:33:56.813Z,97273.04
2019-02-15T20:36:39.303Z,97273.42
2019-02-15T20:39:29.059Z,97277.09
2019-02-15T20:42:11.434Z,97270.33
2019-02-15T20:45:01.170Z,97255.55
2019-02-15T20:47:43.647Z,97277.14
2019-02-15T20:50:26.455Z,97274.03
2019-02-15T20:53:16.237Z,97263.16
2019-02-15T20:56:18.555Z,97280.03
2019-02-15T20:59:01.498Z,97278.63
2019-02-15T21:01:51.263Z,97277.53
2019-02-15T21:04:34.211Z,97277.38
2019-02-15T21:10:27.675Z,97282.91
2019-02-15T21:13:10.062Z,97277.91
2019-02-15T21:15:59.952Z,97277.09
2019-02-15T21:19:02.859Z,97255.65
2019-02-15T21:21:45.376Z,97274.48
2019-02-15T21:24:35.086Z,97269.02
2019-02-15T21:27:17.551Z,97269.56
2019-02-15T21:30:09.273Z,97274.22
2019-02-15T21:32:52.024Z,97272.52
2019-02-15T21:38:43.208Z,97268.47
2019-02-15T21:41:32.983Z,97264.42
2019-02-15T21:44:15.109Z,97262.02
2019-02-15T21:47:04.929Z,97262.78
2019-02-15T21:49:47.556Z,97264.09
2019-02-15T21:52:43.834Z,97263.78
2019-02-15T21:55:20.954Z,97259.27
2019-02-15T21:58:10.711Z,97262.57
2019-02-15T22:00:53.506Z,97248.98
2019-02-15T22:03:43.216Z,97260.95
2019-02-15T22:06:27.723Z,97260.05
2019-02-15T22:12:01.053Z,97262.80
2019-02-15T22:14:50.842Z,97232.46
2019-02-15T22:17:33.741Z,97253.98
2019-02-15T22:23:17.514Z,97261.39
2019-02-15T22:26:03.648Z,97248.67
2019-02-15T22:28:48.080Z,97258.77
2019-02-15T22:31:38.124Z,97238.59
2019-02-15T22:34:27.946Z,97258.27
2019-02-15T22:37:17.702Z,97233.16
2019-02-15T22:40:20.215Z,97242.99
2019-02-15T22:43:30.447Z,97260.85
2019-02-15T22:46:20.243Z,97260.66
2019-02-15T22:52:13.738Z,97248.31
2019-02-15T22:54:56.225Z,97269.95
2019-02-15T22:57:45.976Z,97268.39
2019-02-15T23:01:14.027Z,97247.77
2019-02-15T23:03:56.760Z,97272.72
2019-02-15T23:06:40.842Z,97282.44
2019-02-15T23:09:30.614Z,97283.23
2019-02-15T23:12:20.442Z,97266.30
2019-02-15T23:15:02.732Z,97289.70
2019-02-15T23:17:52.642Z,97292.84
2019-02-15T23:20:45.303Z,97297.70
2019-02-15T23:23:28.322Z,97304.02
2019-02-15T23:26:18.144Z,97287.44
2019-02-15T23:29:07.951Z,97297.16
2019-02-15T23:31:57.749Z,97296.41
2019-02-15T23:34:47.498Z,97265.13
2019-02-15T23:37:37.233Z,97292.09
2019-02-15T23:40:48.284Z,97283.34
2019-02-15T23:43:38.029Z,97289.88
2019-02-15T23:46:21.425Z,97262.29
2019-02-15T23:49:11.765Z,97292.08
2019-02-15T23:52:22.208Z,97291.34
